TENO2: Tenkiller Lake

Data processed at Sat Aug 11 2018 23:56


All information presented herein is the property of the government of the United States of America and may be revised or deleted at any time without prior notice.
Dissemination of this information without the expressed written consent of the Public Affairs Office, Tulsa District U.S. Army Corps of Engineers is strictly prohibited.
These data are gathered electronically and, as presented, have not undergone any form of quality control. These data are not guaranteed to be valid or correct.
Go to home page.
Go to station list.

Upstream stations:

Downstream station:
Previous Day
Next Day
Current Day
    
SHEF ID:       TENO2     Tenkiller Lake
STATION TYPE:  Reservoir
Normal Pool:  Bottom =   594.50, Top =   632.00

               PRECIP PRECIP(A) ELEVATION   STORAGE   TW-ELEV    INFLOW   RELEASE  AIR-TEMP  WIND-DIRWIND-SPEED REL-HUMID SOLAR-RAD   VOLTAGE  BAT-LOAD
                   in        in        ft     ac-ft        ft       cfs       cfs         F       deg       mph         %      W/m2      volt      volt
              Ccp-Rev   Ccp-Rev   Ccp-Rev   Ccp-Rev   Ccp-Rev  Regi-Rev  Regi-Rev   Ccp-Rev   Ccp-Rev   Ccp-Rev   Ccp-Rev   Ccp-Rev   Ccp-Rev   Ccp-Rev
(US/Central)
08/09 00:00      0.00      0.00    629.34    634560    482.04       300         0     69.44    170.60      0.40    100.23      1.00     13.78     13.30
08/09 01:00      0.00      0.00    629.34    634560    482.04       300         0     68.67    170.60      0.40    100.23      1.00     13.78     13.30
08/09 02:00      0.00      0.00    629.34    634560    482.04       300         0     67.46    170.60      0.40    100.23      1.00     13.78     13.30
08/09 03:00      0.00      0.00    629.33    634436    482.04         0         0     66.79    291.90      0.23    100.23      1.00     13.78     13.30
08/09 04:00      0.00      0.00    629.34    634560    482.04         0         0     66.15    308.90      0.40    100.29      1.00     13.78     13.30
08/09 05:00      0.00      0.00    629.34    634560    482.04       300         0     65.70    117.10      0.37    100.29      0.00     13.78     13.30
08/09 06:00      0.00      0.00    629.34    634560    482.04       300         0     65.16    174.70      0.30    100.23      0.00     13.77     13.30
08/09 07:00      0.00      0.00    629.35    634684    482.04       300         0     64.60    116.00      0.40    100.23      2.00     13.77     13.30
08/09 08:00      0.00      0.00    629.35    634684    482.04       300         0     68.00    117.50      0.40    100.23     41.00     13.77     13.24
08/09 09:00      0.00      0.00    629.35    634684    482.04       300         0     75.49    100.20      0.38     91.14    306.00     13.77     13.24
08/09 10:00      0.00      0.00    629.35    634684    482.04         0         0     78.78    115.80      0.62     79.90    372.00     13.77     13.24
08/09 11:00      0.00      0.00    629.35    634684    482.04         0         0     80.31    104.90      2.17     72.88    651.00     13.78     13.18
08/09 12:00      0.00      0.00    629.35    634684    482.04         0         0     82.62    128.20      0.87     68.31    763.00     13.78     13.18
08/09 13:00      0.00      0.00    629.34    634560    483.45         0         0     84.94    108.90      0.72     64.03    618.00     13.78     13.18
08/09 14:00      0.00      0.00    629.33    634436    486.96       121      3450     87.35    213.30      0.16     50.79    919.00     13.78     13.18
08/09 15:00      0.00      0.00    629.30    634065    486.89       127      3716     88.77    221.40      0.88     46.21    921.00     13.78     13.18
08/09 16:00      0.00      0.00    629.27    633693    486.99       133      3716     90.43    218.90      0.29     43.10    672.00     13.78     13.18
08/09 17:00      0.00      0.00    629.24    633321    486.99       138      3716     90.54    141.20      1.28     42.30    619.00     13.78     13.18
08/09 18:00      0.00      0.00    629.24    633321    486.41       288      3716     89.76    216.20      0.27     39.43    462.00     13.78     13.18
08/09 19:00      0.00      0.00    629.23    633197    482.42       287       150     85.05    192.80      0.27     58.85    228.00     13.78     13.18
08/09 20:00      0.00      0.00    629.23    633197    482.06       281         0     79.77    252.70      0.40     80.27     29.00     13.78     13.24
08/09 21:00      0.00      0.00    629.24    633321    482.01       276         0     75.70    247.70      0.40     93.58      3.00     13.78     13.18
08/09 22:00      0.00      0.00    629.24    633321    482.00       270         0     73.40    211.00      0.32     99.99      1.00     13.78     13.24
08/09 23:00      0.00      0.00    629.24    633321    481.98       120         0     71.53    178.10      0.40    100.17      0.00     13.78     13.24